sensor_id;sensor_type;location;lat;lon;timestamp;temperature;humidity
39503;DHT22;26970;49.900;10.774;2023-06-14T00:00:38;14.30;99.70
39503;DHT22;26970;49.900;10.774;2023-06-14T00:03:08;14.20;99.90
39503;DHT22;26970;49.900;10.774;2023-06-14T00:05:35;14.30;99.90
39503;DHT22;26970;49.900;10.774;2023-06-14T00:08:06;14.30;99.90
39503;DHT22;26970;49.900;10.774;2023-06-14T00:10:36;14.30;99.90
39503;DHT22;26970;49.900;10.774;2023-06-14T00:13:05;14.30;99.90
39503;DHT22;26970;49.900;10.774;2023-06-14T00:15:32;14.30;99.90
39503;DHT22;26970;49.900;10.774;2023-06-14T00:17:58;14.20;99.90
39503;DHT22;26970;49.900;10.774;2023-06-14T00:20:27;14.20;99.90
39503;DHT22;26970;49.900;10.774;2023-06-14T00:22:54;14.10;99.90
39503;DHT22;26970;49.900;10.774;2023-06-14T00:25:22;14.00;99.90
39503;DHT22;26970;49.900;10.774;2023-06-14T00:27:48;14.00;99.90
39503;DHT22;26970;49.900;10.774;2023-06-14T00:30:13;13.80;99.90
39503;DHT22;26970;49.900;10.774;2023-06-14T00:32:39;13.80;99.90
39503;DHT22;26970;49.900;10.774;2023-06-14T00:35:05;13.90;99.90
39503;DHT22;26970;49.900;10.774;2023-06-14T00:37:30;13.80;99.90
39503;DHT22;26970;49.900;10.774;2023-06-14T00:39:56;13.80;99.90
39503;DHT22;26970;49.900;10.774;2023-06-14T00:42:25;13.70;99.90
39503;DHT22;26970;49.900;10.774;2023-06-14T00:44:51;13.70;99.90
39503;DHT22;26970;49.900;10.774;2023-06-14T00:47:16;13.80;99.90
39503;DHT22;26970;49.900;10.774;2023-06-14T00:49:42;13.70;99.90
39503;DHT22;26970;49.900;10.774;2023-06-14T00:52:08;13.70;99.90
39503;DHT22;26970;49.900;10.774;2023-06-14T00:54:39;13.60;99.90
39503;DHT22;26970;49.900;10.774;2023-06-14T00:57:05;13.50;99.90
39503;DHT22;26970;49.900;10.774;2023-06-14T00:59:31;13.60;99.90
39503;DHT22;26970;49.900;10.774;2023-06-14T01:01:57;13.60;99.90
39503;DHT22;26970;49.900;10.774;2023-06-14T01:04:22;13.50;99.90
39503;DHT22;26970;49.900;10.774;2023-06-14T01:07:04;13.50;99.90
39503;DHT22;26970;49.900;10.774;2023-06-14T01:12:51;13.40;99.90
39503;DHT22;26970;49.900;10.774;2023-06-14T01:15:18;13.40;99.90
39503;DHT22;26970;49.900;10.774;2023-06-14T01:17:46;13.40;99.90
39503;DHT22;26970;49.900;10.774;2023-06-14T01:20:17;13.40;99.90
39503;DHT22;26970;49.900;10.774;2023-06-14T01:22:52;13.40;99.90
39503;DHT22;26970;49.900;10.774;2023-06-14T01:25:19;13.30;99.90
39503;DHT22;26970;49.900;10.774;2023-06-14T01:28:02;13.40;99.90
39503;DHT22;26970;49.900;10.774;2023-06-14T01:30:29;13.40;99.90
39503;DHT22;26970;49.900;10.774;2023-06-14T01:32:56;13.40;99.90
39503;DHT22;26970;49.900;10.774;2023-06-14T01:35:23;13.40;99.90
39503;DHT22;26970;49.900;10.774;2023-06-14T01:37:49;13.30;99.90
39503;DHT22;26970;49.900;10.774;2023-06-14T01:40:17;13.30;99.90
39503;DHT22;26970;49.900;10.774;2023-06-14T01:42:44;13.30;99.90
39503;DHT22;26970;49.900;10.774;2023-06-14T01:45:11;13.20;99.90
39503;DHT22;26970;49.900;10.774;2023-06-14T01:47:37;13.20;99.90
39503;DHT22;26970;49.900;10.774;2023-06-14T01:50:03;13.20;99.90
39503;DHT22;26970;49.900;10.774;2023-06-14T01:52:29;13.20;99.90
39503;DHT22;26970;49.900;10.774;2023-06-14T01:54:55;13.10;99.90
39503;DHT22;26970;49.900;10.774;2023-06-14T01:57:22;13.10;99.90
39503;DHT22;26970;49.900;10.774;2023-06-14T01:59:48;13.10;99.90
39503;DHT22;26970;49.900;10.774;2023-06-14T02:02:14;13.20;99.90
39503;DHT22;26970;49.900;10.774;2023-06-14T02:04:41;13.20;99.90
39503;DHT22;26970;49.900;10.774;2023-06-14T02:07:06;13.10;99.90
39503;DHT22;26970;49.900;10.774;2023-06-14T02:09:33;13.10;99.90
39503;DHT22;26970;49.900;10.774;2023-06-14T02:11:59;13.00;99.90
39503;DHT22;26970;49.900;10.774;2023-06-14T02:14:24;13.00;99.90
39503;DHT22;26970;49.900;10.774;2023-06-14T02:16:50;13.00;99.90
39503;DHT22;26970;49.900;10.774;2023-06-14T02:19:16;12.80;99.90
39503;DHT22;26970;49.900;10.774;2023-06-14T02:21:42;12.90;99.90
39503;DHT22;26970;49.900;10.774;2023-06-14T02:24:08;12.80;99.90
39503;DHT22;26970;49.900;10.774;2023-06-14T02:26:34;12.80;99.90
39503;DHT22;26970;49.900;10.774;2023-06-14T02:28:59;12.70;99.90
39503;DHT22;26970;49.900;10.774;2023-06-14T02:31:25;12.70;99.90
39503;DHT22;26970;49.900;10.774;2023-06-14T02:33:51;12.70;99.90
39503;DHT22;26970;49.900;10.774;2023-06-14T02:36:16;12.70;99.90
39503;DHT22;26970;49.900;10.774;2023-06-14T02:38:42;12.60;99.90
39503;DHT22;26970;49.900;10.774;2023-06-14T02:41:07;12.70;99.90
39503;DHT22;26970;49.900;10.774;2023-06-14T02:43:33;12.60;99.90
39503;DHT22;26970;49.900;10.774;2023-06-14T02:45:58;12.60;99.90
39503;DHT22;26970;49.900;10.774;2023-06-14T02:48:24;12.60;99.90
39503;DHT22;26970;49.900;10.774;2023-06-14T02:50:50;12.40;99.90
39503;DHT22;26970;49.900;10.774;2023-06-14T02:53:16;12.40;99.90
39503;DHT22;26970;49.900;10.774;2023-06-14T02:55:42;12.40;99.90
39503;DHT22;26970;49.900;10.774;2023-06-14T02:58:08;12.40;99.90
39503;DHT22;26970;49.900;10.774;2023-06-14T03:00:33;12.40;99.90
39503;DHT22;26970;49.900;10.774;2023-06-14T03:03:00;12.40;99.90
39503;DHT22;26970;49.900;10.774;2023-06-14T03:05:27;12.40;99.90
39503;DHT22;26970;49.900;10.774;2023-06-14T03:07:53;12.40;99.90
39503;DHT22;26970;49.900;10.774;2023-06-14T03:10:19;12.40;99.90
39503;DHT22;26970;49.900;10.774;2023-06-14T03:12:45;12.40;99.90
39503;DHT22;26970;49.900;10.774;2023-06-14T03:15:10;12.40;99.90
39503;DHT22;26970;49.900;10.774;2023-06-14T03:17:38;12.30;99.90
39503;DHT22;26970;49.900;10.774;2023-06-14T03:20:04;12.40;99.90
39503;DHT22;26970;49.900;10.774;2023-06-14T03:22:30;12.30;99.90
39503;DHT22;26970;49.900;10.774;2023-06-14T03:24:57;12.40;99.90
39503;DHT22;26970;49.900;10.774;2023-06-14T03:27:24;12.30;99.90
39503;DHT22;26970;49.900;10.774;2023-06-14T03:29:51;12.30;99.90
39503;DHT22;26970;49.900;10.774;2023-06-14T03:32:16;12.20;99.90
39503;DHT22;26970;49.900;10.774;2023-06-14T03:34:42;12.30;99.90
39503;DHT22;26970;49.900;10.774;2023-06-14T03:37:08;12.30;99.90
39503;DHT22;26970;49.900;10.774;2023-06-14T03:39:33;12.40;99.90
39503;DHT22;26970;49.900;10.774;2023-06-14T03:41:59;12.60;99.90
39503;DHT22;26970;49.900;10.774;2023-06-14T03:44:26;12.80;99.90
39503;DHT22;26970;49.900;10.774;2023-06-14T03:46:52;13.00;99.90
39503;DHT22;26970;49.900;10.774;2023-06-14T03:49:17;13.20;99.90
39503;DHT22;26970;49.900;10.774;2023-06-14T03:51:43;13.20;99.90
39503;DHT22;26970;49.900;10.774;2023-06-14T03:54:08;13.20;99.90
39503;DHT22;26970;49.900;10.774;2023-06-14T03:56:34;13.30;99.90
39503;DHT22;26970;49.900;10.774;2023-06-14T03:59:01;13.50;99.90
39503;DHT22;26970;49.900;10.774;2023-06-14T04:01:27;13.70;99.90
39503;DHT22;26970;49.900;10.774;2023-06-14T04:03:56;13.70;99.90
39503;DHT22;26970;49.900;10.774;2023-06-14T04:06:22;13.50;99.90
39503;DHT22;26970;49.900;10.774;2023-06-14T04:08:47;13.30;99.90
39503;DHT22;26970;49.900;10.774;2023-06-14T04:11:15;13.40;99.90
39503;DHT22;26970;49.900;10.774;2023-06-14T04:13:40;13.40;99.90
39503;DHT22;26970;49.900;10.774;2023-06-14T04:16:06;13.40;99.90
39503;DHT22;26970;49.900;10.774;2023-06-14T04:18:31;13.60;99.90
39503;DHT22;26970;49.900;10.774;2023-06-14T04:20:57;13.80;99.90
39503;DHT22;26970;49.900;10.774;2023-06-14T04:23:23;13.80;99.90
39503;DHT22;26970;49.900;10.774;2023-06-14T04:25:48;13.70;99.90
39503;DHT22;26970;49.900;10.774;2023-06-14T04:28:15;13.80;99.90
39503;DHT22;26970;49.900;10.774;2023-06-14T04:30:41;14.00;99.90
39503;DHT22;26970;49.900;10.774;2023-06-14T04:33:07;14.00;99.90
39503;DHT22;26970;49.900;10.774;2023-06-14T04:35:33;14.00;99.90
39503;DHT22;26970;49.900;10.774;2023-06-14T04:38:01;14.00;99.90
39503;DHT22;26970;49.900;10.774;2023-06-14T04:40:30;14.20;99.90
39503;DHT22;26970;49.900;10.774;2023-06-14T04:42:55;14.50;99.90
39503;DHT22;26970;49.900;10.774;2023-06-14T04:45:21;14.50;99.90
39503;DHT22;26970;49.900;10.774;2023-06-14T04:47:47;14.70;99.90
39503;DHT22;26970;49.900;10.774;2023-06-14T04:50:13;14.80;99.90
39503;DHT22;26970;49.900;10.774;2023-06-14T04:52:38;14.70;99.90
39503;DHT22;26970;49.900;10.774;2023-06-14T04:55:04;14.60;99.90
39503;DHT22;26970;49.900;10.774;2023-06-14T04:57:31;14.60;99.90
39503;DHT22;26970;49.900;10.774;2023-06-14T04:59:56;14.90;99.90
39503;DHT22;26970;49.900;10.774;2023-06-14T05:02:23;14.70;99.90
39503;DHT22;26970;49.900;10.774;2023-06-14T05:04:49;14.30;99.90
39503;DHT22;26970;49.900;10.774;2023-06-14T05:07:15;14.20;99.90
39503;DHT22;26970;49.900;10.774;2023-06-14T05:09:41;14.20;99.90
39503;DHT22;26970;49.900;10.774;2023-06-14T05:12:07;14.70;99.90
39503;DHT22;26970;49.900;10.774;2023-06-14T05:14:35;15.00;99.90
39503;DHT22;26970;49.900;10.774;2023-06-14T05:17:01;15.10;99.90
39503;DHT22;26970;49.900;10.774;2023-06-14T05:19:28;15.40;99.90
39503;DHT22;26970;49.900;10.774;2023-06-14T05:21:54;15.90;99.90
39503;DHT22;26970;49.900;10.774;2023-06-14T05:24:19;16.00;99.90
39503;DHT22;26970;49.900;10.774;2023-06-14T05:26:45;16.10;99.90
39503;DHT22;26970;49.900;10.774;2023-06-14T05:29:12;16.00;99.90
39503;DHT22;26970;49.900;10.774;2023-06-14T05:31:37;15.80;99.90
39503;DHT22;26970;49.900;10.774;2023-06-14T05:34:03;16.10;99.90
39503;DHT22;26970;49.900;10.774;2023-06-14T05:36:28;16.20;99.90
39503;DHT22;26970;49.900;10.774;2023-06-14T05:38:54;16.20;99.90
39503;DHT22;26970;49.900;10.774;2023-06-14T05:41:24;16.30;99.90
39503;DHT22;26970;49.900;10.774;2023-06-14T05:43:51;16.20;99.90
39503;DHT22;26970;49.900;10.774;2023-06-14T05:46:16;16.30;99.90
39503;DHT22;26970;49.900;10.774;2023-06-14T05:48:50;16.40;99.90
39503;DHT22;26970;49.900;10.774;2023-06-14T05:51:16;16.30;99.90
39503;DHT22;26970;49.900;10.774;2023-06-14T05:53:47;16.50;99.90
39503;DHT22;26970;49.900;10.774;2023-06-14T05:56:14;16.40;99.90
39503;DHT22;26970;49.900;10.774;2023-06-14T05:58:40;16.30;99.90
39503;DHT22;26970;49.900;10.774;2023-06-14T06:01:05;16.20;99.90
39503;DHT22;26970;49.900;10.774;2023-06-14T06:03:31;16.00;99.90
39503;DHT22;26970;49.900;10.774;2023-06-14T06:05:56;15.90;99.90
39503;DHT22;26970;49.900;10.774;2023-06-14T06:08:22;15.80;99.90
39503;DHT22;26970;49.900;10.774;2023-06-14T06:10:47;15.90;99.90
39503;DHT22;26970;49.900;10.774;2023-06-14T06:13:13;15.70;99.90
39503;DHT22;26970;49.900;10.774;2023-06-14T06:15:38;15.40;99.90
39503;DHT22;26970;49.900;10.774;2023-06-14T06:18:04;15.70;99.90
39503;DHT22;26970;49.900;10.774;2023-06-14T06:20:30;15.80;99.90
39503;DHT22;26970;49.900;10.774;2023-06-14T06:22:58;15.70;99.90
39503;DHT22;26970;49.900;10.774;2023-06-14T06:25:24;15.80;99.90
39503;DHT22;26970;49.900;10.774;2023-06-14T06:27:51;16.00;99.90
39503;DHT22;26970;49.900;10.774;2023-06-14T06:30:17;16.00;99.90
39503;DHT22;26970;49.900;10.774;2023-06-14T06:32:43;16.10;99.90
39503;DHT22;26970;49.900;10.774;2023-06-14T06:35:09;16.10;99.90
39503;DHT22;26970;49.900;10.774;2023-06-14T06:37:36;16.10;99.90
39503;DHT22;26970;49.900;10.774;2023-06-14T06:40:02;16.20;99.90
39503;DHT22;26970;49.900;10.774;2023-06-14T06:42:29;16.10;99.90
39503;DHT22;26970;49.900;10.774;2023-06-14T06:44:55;16.20;99.90
39503;DHT22;26970;49.900;10.774;2023-06-14T06:47:20;16.40;99.90
39503;DHT22;26970;49.900;10.774;2023-06-14T06:49:46;16.30;99.90
39503;DHT22;26970;49.900;10.774;2023-06-14T06:52:11;16.40;99.90
39503;DHT22;26970;49.900;10.774;2023-06-14T06:54:37;16.50;99.90
39503;DHT22;26970;49.900;10.774;2023-06-14T06:57:02;16.50;99.90
39503;DHT22;26970;49.900;10.774;2023-06-14T06:59:28;16.80;99.90
39503;DHT22;26970;49.900;10.774;2023-06-14T07:01:54;17.10;99.90
39503;DHT22;26970;49.900;10.774;2023-06-14T07:04:19;17.10;99.90
39503;DHT22;26970;49.900;10.774;2023-06-14T07:06:46;17.10;99.90
39503;DHT22;26970;49.900;10.774;2023-06-14T07:09:12;17.00;99.90
39503;DHT22;26970;49.900;10.774;2023-06-14T07:11:39;17.10;99.90
39503;DHT22;26970;49.900;10.774;2023-06-14T07:14:05;17.20;99.90
39503;DHT22;26970;49.900;10.774;2023-06-14T07:16:31;17.30;99.90
39503;DHT22;26970;49.900;10.774;2023-06-14T07:18:57;17.40;99.90
39503;DHT22;26970;49.900;10.774;2023-06-14T07:21:23;17.60;99.90
39503;DHT22;26970;49.900;10.774;2023-06-14T07:23:51;17.60;99.90
39503;DHT22;26970;49.900;10.774;2023-06-14T07:26:16;17.60;99.90
39503;DHT22;26970;49.900;10.774;2023-06-14T07:28:42;17.60;99.90
39503;DHT22;26970;49.900;10.774;2023-06-14T07:31:10;17.70;99.90
39503;DHT22;26970;49.900;10.774;2023-06-14T07:33:36;17.70;99.90
39503;DHT22;26970;49.900;10.774;2023-06-14T07:36:02;17.70;99.90
39503;DHT22;26970;49.900;10.774;2023-06-14T07:38:28;17.70;99.90
39503;DHT22;26970;49.900;10.774;2023-06-14T07:40:53;17.90;99.90
39503;DHT22;26970;49.900;10.774;2023-06-14T07:43:19;18.00;99.90
39503;DHT22;26970;49.900;10.774;2023-06-14T07:45:45;18.20;99.90
39503;DHT22;26970;49.900;10.774;2023-06-14T07:48:11;18.20;99.90
39503;DHT22;26970;49.900;10.774;2023-06-14T07:50:36;18.40;99.90
39503;DHT22;26970;49.900;10.774;2023-06-14T07:53:02;18.40;99.30
39503;DHT22;26970;49.900;10.774;2023-06-14T07:55:28;18.40;99.90
39503;DHT22;26970;49.900;10.774;2023-06-14T07:57:54;18.30;98.60
39503;DHT22;26970;49.900;10.774;2023-06-14T08:00:20;18.20;98.30
39503;DHT22;26970;49.900;10.774;2023-06-14T08:02:46;18.10;98.30
39503;DHT22;26970;49.900;10.774;2023-06-14T08:05:11;18.20;99.00
39503;DHT22;26970;49.900;10.774;2023-06-14T08:07:38;18.30;99.00
39503;DHT22;26970;49.900;10.774;2023-06-14T08:10:05;18.70;99.10
39503;DHT22;26970;49.900;10.774;2023-06-14T08:12:31;18.60;97.60
39503;DHT22;26970;49.900;10.774;2023-06-14T08:14:57;18.70;98.10
39503;DHT22;26970;49.900;10.774;2023-06-14T08:17:22;18.60;98.00
39503;DHT22;26970;49.900;10.774;2023-06-14T08:19:48;18.50;98.20
39503;DHT22;26970;49.900;10.774;2023-06-14T08:22:13;18.50;98.50
39503;DHT22;26970;49.900;10.774;2023-06-14T08:24:39;18.60;97.40
39503;DHT22;26970;49.900;10.774;2023-06-14T08:27:06;18.80;97.10
39503;DHT22;26970;49.900;10.774;2023-06-14T08:29:32;18.90;96.60
39503;DHT22;26970;49.900;10.774;2023-06-14T08:31:58;19.10;96.90
39503;DHT22;26970;49.900;10.774;2023-06-14T08:34:23;18.90;96.60
39503;DHT22;26970;49.900;10.774;2023-06-14T08:36:52;18.90;96.60
39503;DHT22;26970;49.900;10.774;2023-06-14T08:39:17;18.90;97.70
39503;DHT22;26970;49.900;10.774;2023-06-14T08:41:46;19.10;96.60
39503;DHT22;26970;49.900;10.774;2023-06-14T08:44:15;19.30;96.50
39503;DHT22;26970;49.900;10.774;2023-06-14T08:46:41;19.60;95.70
39503;DHT22;26970;49.900;10.774;2023-06-14T08:49:08;19.90;95.30
39503;DHT22;26970;49.900;10.774;2023-06-14T08:51:36;20.00;94.50
39503;DHT22;26970;49.900;10.774;2023-06-14T08:54:03;19.70;93.70
39503;DHT22;26970;49.900;10.774;2023-06-14T08:56:30;19.50;94.40
39503;DHT22;26970;49.900;10.774;2023-06-14T08:58:57;19.30;94.50
39503;DHT22;26970;49.900;10.774;2023-06-14T09:01:26;19.50;94.50
39503;DHT22;26970;49.900;10.774;2023-06-14T09:03:52;19.50;94.30
39503;DHT22;26970;49.900;10.774;2023-06-14T09:06:21;19.80;95.20
39503;DHT22;26970;49.900;10.774;2023-06-14T09:08:48;19.70;94.30
39503;DHT22;26970;49.900;10.774;2023-06-14T09:11:16;19.90;94.60
39503;DHT22;26970;49.900;10.774;2023-06-14T09:13:44;19.80;94.40
39503;DHT22;26970;49.900;10.774;2023-06-14T09:16:10;19.90;93.90
39503;DHT22;26970;49.900;10.774;2023-06-14T09:18:40;20.10;94.10
39503;DHT22;26970;49.900;10.774;2023-06-14T09:21:10;19.90;93.40
39503;DHT22;26970;49.900;10.774;2023-06-14T09:23:40;19.90;93.70
39503;DHT22;26970;49.900;10.774;2023-06-14T09:26:10;20.10;93.50
39503;DHT22;26970;49.900;10.774;2023-06-14T09:28:44;20.20;93.20
39503;DHT22;26970;49.900;10.774;2023-06-14T09:31:11;20.50;93.30
39503;DHT22;26970;49.900;10.774;2023-06-14T09:33:37;20.50;93.30
39503;DHT22;26970;49.900;10.774;2023-06-14T09:36:10;20.30;92.70
39503;DHT22;26970;49.900;10.774;2023-06-14T09:38:36;20.50;93.40
39503;DHT22;26970;49.900;10.774;2023-06-14T09:41:03;20.20;92.10
39503;DHT22;26970;49.900;10.774;2023-06-14T09:43:29;19.80;92.80
39503;DHT22;26970;49.900;10.774;2023-06-14T09:45:55;19.50;94.00
39503;DHT22;26970;49.900;10.774;2023-06-14T09:48:21;19.80;93.10
39503;DHT22;26970;49.900;10.774;2023-06-14T09:50:47;19.80;92.80
39503;DHT22;26970;49.900;10.774;2023-06-14T09:53:15;20.00;93.10
39503;DHT22;26970;49.900;10.774;2023-06-14T09:55:41;20.40;92.00
39503;DHT22;26970;49.900;10.774;2023-06-14T09:58:09;20.40;91.50
39503;DHT22;26970;49.900;10.774;2023-06-14T10:00:36;19.90;91.70
39503;DHT22;26970;49.900;10.774;2023-06-14T10:03:14;19.60;92.30
39503;DHT22;26970;49.900;10.774;2023-06-14T10:05:44;19.40;93.30
39503;DHT22;26970;49.900;10.774;2023-06-14T10:08:13;19.70;93.00
39503;DHT22;26970;49.900;10.774;2023-06-14T10:10:41;20.10;92.50
39503;DHT22;26970;49.900;10.774;2023-06-14T10:13:07;20.10;91.40
39503;DHT22;26970;49.900;10.774;2023-06-14T10:15:38;19.80;92.00
39503;DHT22;26970;49.900;10.774;2023-06-14T10:21:04;20.70;92.80
39503;DHT22;26970;49.900;10.774;2023-06-14T10:23:37;21.10;91.40
39503;DHT22;26970;49.900;10.774;2023-06-14T10:26:03;20.80;90.60
39503;DHT22;26970;49.900;10.774;2023-06-14T10:28:28;20.40;90.30
39503;DHT22;26970;49.900;10.774;2023-06-14T10:33:31;20.20;91.20
39503;DHT22;26970;49.900;10.774;2023-06-14T10:36:28;20.20;91.30
39503;DHT22;26970;49.900;10.774;2023-06-14T10:39:07;20.00;91.70
39503;DHT22;26970;49.900;10.774;2023-06-14T10:41:40;19.90;91.50
39503;DHT22;26970;49.900;10.774;2023-06-14T10:46:48;20.30;92.70
39503;DHT22;26970;49.900;10.774;2023-06-14T10:49:21;20.20;91.10
39503;DHT22;26970;49.900;10.774;2023-06-14T10:52:03;20.40;91.50
39503;DHT22;26970;49.900;10.774;2023-06-14T10:54:28;20.60;90.50
39503;DHT22;26970;49.900;10.774;2023-06-14T10:56:54;20.50;90.20
39503;DHT22;26970;49.900;10.774;2023-06-14T10:59:20;20.50;91.60
39503;DHT22;26970;49.900;10.774;2023-06-14T11:04:48;20.40;91.70
39503;DHT22;26970;49.900;10.774;2023-06-14T11:07:48;20.30;91.30
39503;DHT22;26970;49.900;10.774;2023-06-14T11:10:41;21.00;91.80
39503;DHT22;26970;49.900;10.774;2023-06-14T11:13:07;21.30;90.40
39503;DHT22;26970;49.900;10.774;2023-06-14T11:15:34;21.10;90.00
39503;DHT22;26970;49.900;10.774;2023-06-14T11:18:04;21.00;90.70
39503;DHT22;26970;49.900;10.774;2023-06-14T11:20:31;21.20;90.50
39503;DHT22;26970;49.900;10.774;2023-06-14T11:22:57;21.40;89.80
39503;DHT22;26970;49.900;10.774;2023-06-14T11:25:23;21.30;90.20
39503;DHT22;26970;49.900;10.774;2023-06-14T11:27:51;21.20;90.20
39503;DHT22;26970;49.900;10.774;2023-06-14T11:30:17;21.00;89.30
39503;DHT22;26970;49.900;10.774;2023-06-14T11:32:46;20.90;91.10
39503;DHT22;26970;49.900;10.774;2023-06-14T11:35:12;20.70;91.10
39503;DHT22;26970;49.900;10.774;2023-06-14T11:37:38;20.50;90.50
39503;DHT22;26970;49.900;10.774;2023-06-14T11:40:04;20.50;90.50
39503;DHT22;26970;49.900;10.774;2023-06-14T11:42:35;20.70;90.80
39503;DHT22;26970;49.900;10.774;2023-06-14T11:45:01;20.70;90.50
39503;DHT22;26970;49.900;10.774;2023-06-14T11:47:35;21.00;91.10
39503;DHT22;26970;49.900;10.774;2023-06-14T11:50:02;21.40;90.40
39503;DHT22;26970;49.900;10.774;2023-06-14T11:52:28;21.90;91.00
39503;DHT22;26970;49.900;10.774;2023-06-14T11:54:54;22.30;87.70
39503;DHT22;26970;49.900;10.774;2023-06-14T11:57:20;22.10;86.40
39503;DHT22;26970;49.900;10.774;2023-06-14T11:59:46;21.60;88.60
39503;DHT22;26970;49.900;10.774;2023-06-14T12:02:15;21.30;87.70
39503;DHT22;26970;49.900;10.774;2023-06-14T12:04:42;21.20;89.40
39503;DHT22;26970;49.900;10.774;2023-06-14T12:07:12;21.10;88.10
39503;DHT22;26970;49.900;10.774;2023-06-14T12:12:25;21.60;90.50
39503;DHT22;26970;49.900;10.774;2023-06-14T12:14:51;22.00;87.30
39503;DHT22;26970;49.900;10.774;2023-06-14T12:17:18;22.30;87.00
39503;DHT22;26970;49.900;10.774;2023-06-14T12:19:44;22.10;85.20
39503;DHT22;26970;49.900;10.774;2023-06-14T12:22:11;21.90;87.80
39503;DHT22;26970;49.900;10.774;2023-06-14T12:24:37;22.00;85.40
39503;DHT22;26970;49.900;10.774;2023-06-14T12:27:06;21.60;87.20
39503;DHT22;26970;49.900;10.774;2023-06-14T12:29:32;21.40;87.60
39503;DHT22;26970;49.900;10.774;2023-06-14T12:31:57;21.20;88.50
39503;DHT22;26970;49.900;10.774;2023-06-14T12:34:24;21.00;87.60
39503;DHT22;26970;49.900;10.774;2023-06-14T12:36:53;21.00;89.60
39503;DHT22;26970;49.900;10.774;2023-06-14T12:39:20;20.90;89.30
39503;DHT22;26970;49.900;10.774;2023-06-14T12:41:46;20.90;87.60
39503;DHT22;26970;49.900;10.774;2023-06-14T12:44:12;21.00;88.40
39503;DHT22;26970;49.900;10.774;2023-06-14T12:46:39;21.30;88.80
39503;DHT22;26970;49.900;10.774;2023-06-14T12:49:05;21.40;86.40
39503;DHT22;26970;49.900;10.774;2023-06-14T12:51:32;21.40;87.20
39503;DHT22;26970;49.900;10.774;2023-06-14T12:53:57;21.50;86.20
39503;DHT22;26970;49.900;10.774;2023-06-14T12:56:23;21.70;87.50
39503;DHT22;26970;49.900;10.774;2023-06-14T12:58:48;21.70;86.20
39503;DHT22;26970;49.900;10.774;2023-06-14T13:01:14;21.60;88.10
39503;DHT22;26970;49.900;10.774;2023-06-14T13:03:39;21.40;88.60
39503;DHT22;26970;49.900;10.774;2023-06-14T13:06:05;21.20;87.30
39503;DHT22;26970;49.900;10.774;2023-06-14T13:08:31;21.10;88.90
39503;DHT22;26970;49.900;10.774;2023-06-14T13:10:56;21.20;88.10
39503;DHT22;26970;49.900;10.774;2023-06-14T13:13:23;21.20;89.50
39503;DHT22;26970;49.900;10.774;2023-06-14T13:15:48;21.20;90.20
39503;DHT22;26970;49.900;10.774;2023-06-14T13:18:15;21.30;87.50
39503;DHT22;26970;49.900;10.774;2023-06-14T13:20:42;21.50;87.10
39503;DHT22;26970;49.900;10.774;2023-06-14T13:23:08;21.50;87.50
39503;DHT22;26970;49.900;10.774;2023-06-14T13:25:35;21.40;88.00
39503;DHT22;26970;49.900;10.774;2023-06-14T13:28:00;21.40;86.80
39503;DHT22;26970;49.900;10.774;2023-06-14T13:30:26;21.80;88.10
39503;DHT22;26970;49.900;10.774;2023-06-14T13:32:52;22.20;86.70
39503;DHT22;26970;49.900;10.774;2023-06-14T13:35:18;22.40;85.60
39503;DHT22;26970;49.900;10.774;2023-06-14T13:37:44;22.60;84.10
39503;DHT22;26970;49.900;10.774;2023-06-14T13:40:10;22.60;83.40
39503;DHT22;26970;49.900;10.774;2023-06-14T13:42:36;22.70;85.60
39503;DHT22;26970;49.900;10.774;2023-06-14T13:45:03;22.50;84.10
39503;DHT22;26970;49.900;10.774;2023-06-14T13:47:29;22.30;85.50
39503;DHT22;26970;49.900;10.774;2023-06-14T13:49:55;22.10;86.90
39503;DHT22;26970;49.900;10.774;2023-06-14T13:52:21;22.00;84.50
39503;DHT22;26970;49.900;10.774;2023-06-14T13:54:46;21.70;86.20
39503;DHT22;26970;49.900;10.774;2023-06-14T13:57:12;21.70;87.30
39503;DHT22;26970;49.900;10.774;2023-06-14T13:59:38;21.60;86.30
39503;DHT22;26970;49.900;10.774;2023-06-14T14:02:05;21.70;87.00
39503;DHT22;26970;49.900;10.774;2023-06-14T14:04:31;21.80;84.80
39503;DHT22;26970;49.900;10.774;2023-06-14T14:06:56;21.90;85.40
39503;DHT22;26970;49.900;10.774;2023-06-14T14:09:22;22.00;85.60
39503;DHT22;26970;49.900;10.774;2023-06-14T14:11:48;22.00;85.90
39503;DHT22;26970;49.900;10.774;2023-06-14T14:14:14;22.20;86.70
39503;DHT22;26970;49.900;10.774;2023-06-14T14:16:39;21.90;85.50
39503;DHT22;26970;49.900;10.774;2023-06-14T14:19:05;21.90;86.40
39503;DHT22;26970;49.900;10.774;2023-06-14T14:21:32;21.90;84.50
39503;DHT22;26970;49.900;10.774;2023-06-14T14:23:57;21.80;84.10
39503;DHT22;26970;49.900;10.774;2023-06-14T14:26:23;21.70;85.30
39503;DHT22;26970;49.900;10.774;2023-06-14T14:28:50;21.70;87.90
39503;DHT22;26970;49.900;10.774;2023-06-14T14:31:15;22.00;86.00
39503;DHT22;26970;49.900;10.774;2023-06-14T14:33:41;22.00;84.50
39503;DHT22;26970;49.900;10.774;2023-06-14T14:36:06;22.20;87.40
39503;DHT22;26970;49.900;10.774;2023-06-14T14:38:33;22.40;82.60
39503;DHT22;26970;49.900;10.774;2023-06-14T14:40:58;22.30;83.40
39503;DHT22;26970;49.900;10.774;2023-06-14T14:43:24;22.50;82.50
39503;DHT22;26970;49.900;10.774;2023-06-14T14:45:49;22.80;83.40
39503;DHT22;26970;49.900;10.774;2023-06-14T14:48:15;22.80;83.80
39503;DHT22;26970;49.900;10.774;2023-06-14T14:50:40;22.70;83.90
39503;DHT22;26970;49.900;10.774;2023-06-14T14:53:06;22.40;84.70
39503;DHT22;26970;49.900;10.774;2023-06-14T14:55:32;22.40;83.80
39503;DHT22;26970;49.900;10.774;2023-06-14T14:58:00;22.10;86.70
39503;DHT22;26970;49.900;10.774;2023-06-14T15:00:26;22.10;86.30
39503;DHT22;26970;49.900;10.774;2023-06-14T15:02:51;21.90;86.20
39503;DHT22;26970;49.900;10.774;2023-06-14T15:05:17;21.80;86.00
39503;DHT22;26970;49.900;10.774;2023-06-14T15:07:42;21.60;86.40
39503;DHT22;26970;49.900;10.774;2023-06-14T15:10:10;21.50;86.40
39503;DHT22;26970;49.900;10.774;2023-06-14T15:12:35;21.60;88.10
39503;DHT22;26970;49.900;10.774;2023-06-14T15:15:02;21.60;88.00
39503;DHT22;26970;49.900;10.774;2023-06-14T15:17:28;21.50;89.20
39503;DHT22;26970;49.900;10.774;2023-06-14T15:19:54;21.60;86.60
39503;DHT22;26970;49.900;10.774;2023-06-14T15:22:19;21.90;85.10
39503;DHT22;26970;49.900;10.774;2023-06-14T15:24:45;22.00;85.90
39503;DHT22;26970;49.900;10.774;2023-06-14T15:27:13;21.90;86.30
39503;DHT22;26970;49.900;10.774;2023-06-14T15:29:41;21.70;90.00